sensor_id;sensor_type;location;lat;lon;timestamp;P1;durP1;ratioP1;P2;durP2;ratioP2
19828;SDS011;10075;50.924;4.396;2023-06-10T00:01:51;9.05;;;6.20;;
19828;SDS011;10075;50.924;4.396;2023-06-10T00:04:20;8.02;;;5.90;;
19828;SDS011;10075;50.924;4.396;2023-06-10T00:06:47;10.65;;;6.78;;
19828;SDS011;10075;50.924;4.396;2023-06-10T00:09:16;7.05;;;6.35;;
19828;SDS011;10075;50.924;4.396;2023-06-10T00:11:43;10.45;;;6.60;;
19828;SDS011;10075;50.924;4.396;2023-06-10T00:14:10;9.75;;;6.50;;
19828;SDS011;10075;50.924;4.396;2023-06-10T00:16:37;7.15;;;6.45;;
19828;SDS011;10075;50.924;4.396;2023-06-10T00:19:05;9.35;;;6.35;;
19828;SDS011;10075;50.924;4.396;2023-06-10T00:21:33;12.52;;;6.43;;
19828;SDS011;10075;50.924;4.396;2023-06-10T00:24:05;11.02;;;6.45;;
19828;SDS011;10075;50.924;4.396;2023-06-10T00:26:38;8.50;;;6.13;;
19828;SDS011;10075;50.924;4.396;2023-06-10T00:29:05;9.00;;;6.55;;
19828;SDS011;10075;50.924;4.396;2023-06-10T00:31:33;11.57;;;7.00;;
19828;SDS011;10075;50.924;4.396;2023-06-10T00:34:00;8.98;;;5.80;;
19828;SDS011;10075;50.924;4.396;2023-06-10T00:36:27;8.23;;;6.93;;
19828;SDS011;10075;50.924;4.396;2023-06-10T00:38:55;7.72;;;6.28;;
19828;SDS011;10075;50.924;4.396;2023-06-10T00:41:22;7.68;;;6.38;;
19828;SDS011;10075;50.924;4.396;2023-06-10T00:43:50;7.32;;;6.43;;
19828;SDS011;10075;50.924;4.396;2023-06-10T00:46:17;9.70;;;7.20;;
19828;SDS011;10075;50.924;4.396;2023-06-10T00:48:44;7.03;;;6.18;;
19828;SDS011;10075;50.924;4.396;2023-06-10T00:51:12;9.20;;;6.80;;
19828;SDS011;10075;50.924;4.396;2023-06-10T00:53:39;9.65;;;6.68;;
19828;SDS011;10075;50.924;4.396;2023-06-10T00:56:07;8.27;;;6.85;;
19828;SDS011;10075;50.924;4.396;2023-06-10T00:58:35;7.95;;;6.82;;
19828;SDS011;10075;50.924;4.396;2023-06-10T01:01:03;7.97;;;6.82;;
19828;SDS011;10075;50.924;4.396;2023-06-10T01:03:30;10.10;;;6.10;;
19828;SDS011;10075;50.924;4.396;2023-06-10T01:06:03;7.80;;;6.93;;
19828;SDS011;10075;50.924;4.396;2023-06-10T01:08:35;8.27;;;7.38;;
19828;SDS011;10075;50.924;4.396;2023-06-10T01:11:08;7.93;;;6.90;;
19828;SDS011;10075;50.924;4.396;2023-06-10T01:13:40;9.57;;;6.80;;
19828;SDS011;10075;50.924;4.396;2023-06-10T01:16:10;10.23;;;6.72;;
19828;SDS011;10075;50.924;4.396;2023-06-10T01:18:38;9.48;;;6.93;;
19828;SDS011;10075;50.924;4.396;2023-06-10T01:21:07;10.05;;;6.72;;
19828;SDS011;10075;50.924;4.396;2023-06-10T01:23:35;9.23;;;6.43;;
19828;SDS011;10075;50.924;4.396;2023-06-10T01:26:04;9.13;;;7.10;;
19828;SDS011;10075;50.924;4.396;2023-06-10T01:28:38;10.50;;;6.85;;
19828;SDS011;10075;50.924;4.396;2023-06-10T01:31:12;7.07;;;6.40;;
19828;SDS011;10075;50.924;4.396;2023-06-10T01:33:43;7.35;;;6.50;;
19828;SDS011;10075;50.924;4.396;2023-06-10T01:36:12;11.50;;;6.72;;
19828;SDS011;10075;50.924;4.396;2023-06-10T01:38:43;8.70;;;7.05;;
19828;SDS011;10075;50.924;4.396;2023-06-10T01:41:13;9.43;;;6.82;;
19828;SDS011;10075;50.924;4.396;2023-06-10T01:43:42;10.77;;;6.75;;
19828;SDS011;10075;50.924;4.396;2023-06-10T01:46:09;10.73;;;7.10;;
19828;SDS011;10075;50.924;4.396;2023-06-10T01:48:37;8.55;;;6.85;;
19828;SDS011;10075;50.924;4.396;2023-06-10T01:51:04;7.85;;;7.05;;
19828;SDS011;10075;50.924;4.396;2023-06-10T01:53:31;7.90;;;7.10;;
19828;SDS011;10075;50.924;4.396;2023-06-10T01:56:00;9.57;;;6.85;;
19828;SDS011;10075;50.924;4.396;2023-06-10T01:58:27;8.05;;;6.82;;
19828;SDS011;10075;50.924;4.396;2023-06-10T02:00:54;8.10;;;7.30;;
19828;SDS011;10075;50.924;4.396;2023-06-10T02:03:21;9.25;;;7.10;;
19828;SDS011;10075;50.924;4.396;2023-06-10T02:05:48;7.93;;;7.13;;
19828;SDS011;10075;50.924;4.396;2023-06-10T02:08:15;8.20;;;7.30;;
19828;SDS011;10075;50.924;4.396;2023-06-10T02:10:42;10.60;;;7.43;;
19828;SDS011;10075;50.924;4.396;2023-06-10T02:13:11;9.98;;;7.72;;
19828;SDS011;10075;50.924;4.396;2023-06-10T02:15:38;10.77;;;7.97;;
19828;SDS011;10075;50.924;4.396;2023-06-10T02:18:05;8.20;;;7.07;;
19828;SDS011;10075;50.924;4.396;2023-06-10T02:20:32;10.52;;;7.50;;
19828;SDS011;10075;50.924;4.396;2023-06-10T02:22:59;9.23;;;7.53;;
19828;SDS011;10075;50.924;4.396;2023-06-10T02:25:26;8.63;;;7.63;;
19828;SDS011;10075;50.924;4.396;2023-06-10T02:27:53;12.30;;;7.05;;
19828;SDS011;10075;50.924;4.396;2023-06-10T02:30:21;8.88;;;7.80;;
19828;SDS011;10075;50.924;4.396;2023-06-10T02:32:49;8.55;;;7.38;;
19828;SDS011;10075;50.924;4.396;2023-06-10T02:35:17;9.50;;;7.65;;
19828;SDS011;10075;50.924;4.396;2023-06-10T02:37:45;8.68;;;7.78;;
19828;SDS011;10075;50.924;4.396;2023-06-10T02:40:12;9.02;;;7.35;;
19828;SDS011;10075;50.924;4.396;2023-06-10T02:42:39;10.15;;;7.43;;
19828;SDS011;10075;50.924;4.396;2023-06-10T02:45:06;9.00;;;8.10;;
19828;SDS011;10075;50.924;4.396;2023-06-10T02:47:37;8.10;;;7.20;;
19828;SDS011;10075;50.924;4.396;2023-06-10T02:50:05;14.02;;;7.80;;
19828;SDS011;10075;50.924;4.396;2023-06-10T02:52:32;9.48;;;8.23;;
19828;SDS011;10075;50.924;4.396;2023-06-10T02:54:59;8.15;;;7.35;;
19828;SDS011;10075;50.924;4.396;2023-06-10T02:57:26;9.95;;;7.47;;
19828;SDS011;10075;50.924;4.396;2023-06-10T02:59:53;10.27;;;8.23;;
19828;SDS011;10075;50.924;4.396;2023-06-10T03:02:20;10.20;;;7.75;;
19828;SDS011;10075;50.924;4.396;2023-06-10T03:04:54;10.57;;;8.50;;
19828;SDS011;10075;50.924;4.396;2023-06-10T03:07:21;10.38;;;7.68;;
19828;SDS011;10075;50.924;4.396;2023-06-10T03:09:48;10.38;;;7.90;;
19828;SDS011;10075;50.924;4.396;2023-06-10T03:12:15;10.63;;;9.55;;
19828;SDS011;10075;50.924;4.396;2023-06-10T03:14:42;10.90;;;8.65;;
19828;SDS011;10075;50.924;4.396;2023-06-10T03:17:09;9.20;;;8.18;;
19828;SDS011;10075;50.924;4.396;2023-06-10T03:19:36;10.20;;;8.30;;
19828;SDS011;10075;50.924;4.396;2023-06-10T03:22:09;11.20;;;8.38;;
19828;SDS011;10075;50.924;4.396;2023-06-10T03:24:37;10.55;;;8.02;;
19828;SDS011;10075;50.924;4.396;2023-06-10T03:27:06;10.77;;;8.05;;
19828;SDS011;10075;50.924;4.396;2023-06-10T03:29:33;13.65;;;8.70;;
19828;SDS011;10075;50.924;4.396;2023-06-10T03:32:01;10.60;;;8.95;;
19828;SDS011;10075;50.924;4.396;2023-06-10T03:34:28;9.45;;;8.55;;
19828;SDS011;10075;50.924;4.396;2023-06-10T03:36:55;10.73;;;8.95;;
19828;SDS011;10075;50.924;4.396;2023-06-10T03:39:24;11.70;;;8.88;;
19828;SDS011;10075;50.924;4.396;2023-06-10T03:41:54;19.75;;;9.52;;
19828;SDS011;10075;50.924;4.396;2023-06-10T03:44:21;10.15;;;8.35;;
19828;SDS011;10075;50.924;4.396;2023-06-10T03:46:48;12.82;;;8.82;;
19828;SDS011;10075;50.924;4.396;2023-06-10T03:49:15;13.32;;;8.75;;
19828;SDS011;10075;50.924;4.396;2023-06-10T03:51:42;12.05;;;8.38;;
19828;SDS011;10075;50.924;4.396;2023-06-10T03:54:09;12.70;;;8.40;;
19828;SDS011;10075;50.924;4.396;2023-06-10T03:56:37;9.88;;;8.50;;
19828;SDS011;10075;50.924;4.396;2023-06-10T03:59:05;10.85;;;8.93;;
19828;SDS011;10075;50.924;4.396;2023-06-10T04:01:32;11.52;;;9.45;;
19828;SDS011;10075;50.924;4.396;2023-06-10T04:04:00;11.15;;;8.77;;
19828;SDS011;10075;50.924;4.396;2023-06-10T04:06:27;10.40;;;8.80;;
19828;SDS011;10075;50.924;4.396;2023-06-10T04:08:55;10.98;;;9.20;;
19828;SDS011;10075;50.924;4.396;2023-06-10T04:11:22;11.70;;;9.30;;
19828;SDS011;10075;50.924;4.396;2023-06-10T04:13:51;11.15;;;9.32;;
19828;SDS011;10075;50.924;4.396;2023-06-10T04:16:18;9.88;;;8.68;;
19828;SDS011;10075;50.924;4.396;2023-06-10T04:18:46;10.40;;;8.60;;
19828;SDS011;10075;50.924;4.396;2023-06-10T04:21:13;11.70;;;9.73;;
19828;SDS011;10075;50.924;4.396;2023-06-10T04:23:40;13.05;;;9.40;;
19828;SDS011;10075;50.924;4.396;2023-06-10T04:26:07;11.43;;;9.68;;
19828;SDS011;10075;50.924;4.396;2023-06-10T04:28:35;11.68;;;9.38;;
19828;SDS011;10075;50.924;4.396;2023-06-10T04:31:03;10.93;;;9.73;;
19828;SDS011;10075;50.924;4.396;2023-06-10T04:33:30;11.02;;;9.93;;
19828;SDS011;10075;50.924;4.396;2023-06-10T04:35:57;12.18;;;9.70;;
19828;SDS011;10075;50.924;4.396;2023-06-10T04:38:24;11.27;;;9.82;;
19828;SDS011;10075;50.924;4.396;2023-06-10T04:40:52;12.50;;;9.57;;
19828;SDS011;10075;50.924;4.396;2023-06-10T04:43:19;12.35;;;10.05;;
19828;SDS011;10075;50.924;4.396;2023-06-10T04:45:47;12.10;;;10.13;;
19828;SDS011;10075;50.924;4.396;2023-06-10T04:48:15;11.10;;;9.60;;
19828;SDS011;10075;50.924;4.396;2023-06-10T04:50:42;13.43;;;9.52;;
19828;SDS011;10075;50.924;4.396;2023-06-10T04:53:09;13.75;;;9.35;;
19828;SDS011;10075;50.924;4.396;2023-06-10T04:55:36;11.57;;;10.05;;
19828;SDS011;10075;50.924;4.396;2023-06-10T04:58:03;15.38;;;10.57;;
19828;SDS011;10075;50.924;4.396;2023-06-10T05:00:30;13.68;;;9.95;;
19828;SDS011;10075;50.924;4.396;2023-06-10T05:02:57;12.20;;;9.95;;
19828;SDS011;10075;50.924;4.396;2023-06-10T05:05:25;10.43;;;9.35;;
19828;SDS011;10075;50.924;4.396;2023-06-10T05:07:52;11.13;;;9.40;;
19828;SDS011;10075;50.924;4.396;2023-06-10T05:10:19;13.63;;;9.50;;
19828;SDS011;10075;50.924;4.396;2023-06-10T05:12:46;10.80;;;9.80;;
19828;SDS011;10075;50.924;4.396;2023-06-10T05:15:13;12.07;;;9.70;;
19828;SDS011;10075;50.924;4.396;2023-06-10T05:17:40;11.38;;;10.27;;
19828;SDS011;10075;50.924;4.396;2023-06-10T05:20:08;11.95;;;9.32;;
19828;SDS011;10075;50.924;4.396;2023-06-10T05:22:37;13.55;;;10.57;;
19828;SDS011;10075;50.924;4.396;2023-06-10T05:25:04;15.80;;;9.63;;
19828;SDS011;10075;50.924;4.396;2023-06-10T05:27:31;11.55;;;9.65;;
19828;SDS011;10075;50.924;4.396;2023-06-10T05:29:58;13.05;;;10.20;;
19828;SDS011;10075;50.924;4.396;2023-06-10T05:32:26;11.77;;;9.77;;
19828;SDS011;10075;50.924;4.396;2023-06-10T05:34:53;12.98;;;9.93;;
19828;SDS011;10075;50.924;4.396;2023-06-10T05:37:20;15.43;;;10.13;;
19828;SDS011;10075;50.924;4.396;2023-06-10T05:39:48;12.60;;;10.23;;
19828;SDS011;10075;50.924;4.396;2023-06-10T05:42:15;12.30;;;10.10;;
19828;SDS011;10075;50.924;4.396;2023-06-10T05:44:42;11.80;;;10.05;;
19828;SDS011;10075;50.924;4.396;2023-06-10T05:47:09;16.00;;;11.07;;
19828;SDS011;10075;50.924;4.396;2023-06-10T05:49:36;14.93;;;9.55;;
19828;SDS011;10075;50.924;4.396;2023-06-10T05:52:03;12.73;;;10.32;;
19828;SDS011;10075;50.924;4.396;2023-06-10T05:54:31;10.75;;;9.60;;
19828;SDS011;10075;50.924;4.396;2023-06-10T05:56:59;11.82;;;10.13;;
19828;SDS011;10075;50.924;4.396;2023-06-10T05:59:26;10.85;;;9.85;;
19828;SDS011;10075;50.924;4.396;2023-06-10T06:01:53;10.60;;;9.38;;
19828;SDS011;10075;50.924;4.396;2023-06-10T06:04:20;10.48;;;9.43;;
19828;SDS011;10075;50.924;4.396;2023-06-10T06:06:47;11.80;;;10.35;;
19828;SDS011;10075;50.924;4.396;2023-06-10T06:09:14;12.77;;;10.07;;
19828;SDS011;10075;50.924;4.396;2023-06-10T06:11:41;10.52;;;9.52;;
19828;SDS011;10075;50.924;4.396;2023-06-10T06:14:09;11.02;;;9.38;;
19828;SDS011;10075;50.924;4.396;2023-06-10T06:16:36;13.68;;;10.50;;
19828;SDS011;10075;50.924;4.396;2023-06-10T06:19:04;12.70;;;9.50;;
19828;SDS011;10075;50.924;4.396;2023-06-10T06:21:31;10.40;;;9.30;;
19828;SDS011;10075;50.924;4.396;2023-06-10T06:23:58;16.38;;;10.00;;
19828;SDS011;10075;50.924;4.396;2023-06-10T06:26:25;12.10;;;9.50;;
19828;SDS011;10075;50.924;4.396;2023-06-10T06:28:53;14.18;;;9.05;;
19828;SDS011;10075;50.924;4.396;2023-06-10T06:31:21;10.63;;;9.52;;
19828;SDS011;10075;50.924;4.396;2023-06-10T06:33:48;10.38;;;9.07;;
19828;SDS011;10075;50.924;4.396;2023-06-10T06:36:15;13.68;;;9.38;;
19828;SDS011;10075;50.924;4.396;2023-06-10T06:38:42;11.52;;;9.65;;
19828;SDS011;10075;50.924;4.396;2023-06-10T06:41:09;12.50;;;10.02;;
19828;SDS011;10075;50.924;4.396;2023-06-10T06:43:36;12.13;;;9.93;;
19828;SDS011;10075;50.924;4.396;2023-06-10T06:46:03;12.73;;;9.80;;
19828;SDS011;10075;50.924;4.396;2023-06-10T06:48:31;13.45;;;9.70;;
19828;SDS011;10075;50.924;4.396;2023-06-10T06:50:58;12.73;;;9.43;;
19828;SDS011;10075;50.924;4.396;2023-06-10T06:53:25;13.85;;;9.55;;
19828;SDS011;10075;50.924;4.396;2023-06-10T06:55:52;11.35;;;8.68;;
19828;SDS011;10075;50.924;4.396;2023-06-10T06:58:19;11.68;;;9.30;;
19828;SDS011;10075;50.924;4.396;2023-06-10T07:00:46;10.00;;;9.00;;
19828;SDS011;10075;50.924;4.396;2023-06-10T07:03:13;10.30;;;9.30;;
19828;SDS011;10075;50.924;4.396;2023-06-10T07:05:42;12.20;;;8.45;;
19828;SDS011;10075;50.924;4.396;2023-06-10T07:08:09;9.85;;;8.95;;
19828;SDS011;10075;50.924;4.396;2023-06-10T07:10:37;11.00;;;9.60;;
19828;SDS011;10075;50.924;4.396;2023-06-10T07:13:04;13.85;;;8.60;;
19828;SDS011;10075;50.924;4.396;2023-06-10T07:15:31;9.70;;;8.70;;
19828;SDS011;10075;50.924;4.396;2023-06-10T07:17:58;10.30;;;8.50;;
19828;SDS011;10075;50.924;4.396;2023-06-10T07:20:25;11.35;;;8.25;;
19828;SDS011;10075;50.924;4.396;2023-06-10T07:22:54;10.70;;;8.98;;
19828;SDS011;10075;50.924;4.396;2023-06-10T07:25:21;10.07;;;9.07;;
19828;SDS011;10075;50.924;4.396;2023-06-10T07:27:48;10.23;;;8.30;;
19828;SDS011;10075;50.924;4.396;2023-06-10T07:30:15;11.50;;;8.55;;
19828;SDS011;10075;50.924;4.396;2023-06-10T07:32:42;9.45;;;8.27;;
19828;SDS011;10075;50.924;4.396;2023-06-10T07:35:09;9.38;;;8.10;;
19828;SDS011;10075;50.924;4.396;2023-06-10T07:37:37;10.57;;;7.85;;
19828;SDS011;10075;50.924;4.396;2023-06-10T07:40:06;13.40;;;7.85;;
19828;SDS011;10075;50.924;4.396;2023-06-10T07:42:34;10.18;;;7.90;;
19828;SDS011;10075;50.924;4.396;2023-06-10T07:45:02;12.15;;;9.10;;
19828;SDS011;10075;50.924;4.396;2023-06-10T07:47:29;10.00;;;8.15;;
19828;SDS011;10075;50.924;4.396;2023-06-10T07:49:57;10.10;;;7.65;;
19828;SDS011;10075;50.924;4.396;2023-06-10T07:52:24;10.68;;;7.82;;
19828;SDS011;10075;50.924;4.396;2023-06-10T07:54:53;8.93;;;7.38;;
19828;SDS011;10075;50.924;4.396;2023-06-10T07:57:22;11.45;;;7.55;;
19828;SDS011;10075;50.924;4.396;2023-06-10T07:59:49;9.73;;;8.27;;
19828;SDS011;10075;50.924;4.396;2023-06-10T08:02:16;8.57;;;7.45;;
19828;SDS011;10075;50.924;4.396;2023-06-10T08:04:43;11.55;;;8.18;;
19828;SDS011;10075;50.924;4.396;2023-06-10T08:07:10;10.45;;;7.90;;
19828;SDS011;10075;50.924;4.396;2023-06-10T08:09:37;10.40;;;7.97;;
19828;SDS011;10075;50.924;4.396;2023-06-10T08:12:04;9.35;;;7.68;;
19828;SDS011;10075;50.924;4.396;2023-06-10T08:14:34;10.38;;;7.93;;
19828;SDS011;10075;50.924;4.396;2023-06-10T08:17:02;7.57;;;6.85;;
19828;SDS011;10075;50.924;4.396;2023-06-10T08:19:30;8.63;;;7.18;;
19828;SDS011;10075;50.924;4.396;2023-06-10T08:21:58;9.95;;;7.07;;
19828;SDS011;10075;50.924;4.396;2023-06-10T08:24:25;7.32;;;6.60;;
19828;SDS011;10075;50.924;4.396;2023-06-10T08:26:52;9.50;;;6.93;;
19828;SDS011;10075;50.924;4.396;2023-06-10T08:29:19;9.30;;;7.07;;
19828;SDS011;10075;50.924;4.396;2023-06-10T08:31:48;9.00;;;6.45;;
19828;SDS011;10075;50.924;4.396;2023-06-10T08:34:15;9.40;;;7.00;;
19828;SDS011;10075;50.924;4.396;2023-06-10T08:36:42;10.75;;;6.93;;
19828;SDS011;10075;50.924;4.396;2023-06-10T08:39:10;9.63;;;6.47;;
19828;SDS011;10075;50.924;4.396;2023-06-10T08:41:39;6.93;;;6.22;;
19828;SDS011;10075;50.924;4.396;2023-06-10T08:44:09;8.65;;;6.40;;
19828;SDS011;10075;50.924;4.396;2023-06-10T08:46:43;9.77;;;6.40;;
19828;SDS011;10075;50.924;4.396;2023-06-10T08:49:14;7.55;;;6.70;;
19828;SDS011;10075;50.924;4.396;2023-06-10T08:51:46;8.32;;;6.38;;
19828;SDS011;10075;50.924;4.396;2023-06-10T08:54:17;8.05;;;5.78;;
19828;SDS011;10075;50.924;4.396;2023-06-10T08:56:48;9.05;;;5.30;;
19828;SDS011;10075;50.924;4.396;2023-06-10T08:59:17;7.40;;;5.80;;
19828;SDS011;10075;50.924;4.396;2023-06-10T09:01:44;7.72;;;6.30;;
19828;SDS011;10075;50.924;4.396;2023-06-10T09:04:14;9.32;;;5.57;;
19828;SDS011;10075;50.924;4.396;2023-06-10T09:06:43;6.50;;;5.60;;
19828;SDS011;10075;50.924;4.396;2023-06-10T09:09:11;8.57;;;5.22;;
19828;SDS011;10075;50.924;4.396;2023-06-10T09:11:39;7.35;;;5.28;;
19828;SDS011;10075;50.924;4.396;2023-06-10T09:14:08;6.18;;;5.22;;
19828;SDS011;10075;50.924;4.396;2023-06-10T09:16:37;9.23;;;5.45;;
19828;SDS011;10075;50.924;4.396;2023-06-10T09:19:04;7.90;;;5.32;;
19828;SDS011;10075;50.924;4.396;2023-06-10T09:21:34;7.35;;;5.18;;
19828;SDS011;10075;50.924;4.396;2023-06-10T09:24:02;5.85;;;4.78;;
19828;SDS011;10075;50.924;4.396;2023-06-10T09:26:30;5.38;;;4.45;;
19828;SDS011;10075;50.924;4.396;2023-06-10T09:29:01;6.28;;;4.43;;
19828;SDS011;10075;50.924;4.396;2023-06-10T09:31:30;6.35;;;4.70;;
19828;SDS011;10075;50.924;4.396;2023-06-10T09:34:04;5.25;;;4.10;;
19828;SDS011;10075;50.924;4.396;2023-06-10T09:36:34;5.55;;;4.53;;
19828;SDS011;10075;50.924;4.396;2023-06-10T09:39:02;6.10;;;4.43;;
19828;SDS011;10075;50.924;4.396;2023-06-10T09:41:33;6.40;;;4.80;;
19828;SDS011;10075;50.924;4.396;2023-06-10T09:44:00;4.80;;;4.35;;
19828;SDS011;10075;50.924;4.396;2023-06-10T09:46:30;5.93;;;4.88;;
19828;SDS011;10075;50.924;4.396;2023-06-10T09:48:58;4.93;;;4.38;;
19828;SDS011;10075;50.924;4.396;2023-06-10T09:51:25;7.10;;;4.70;;
19828;SDS011;10075;50.924;4.396;2023-06-10T09:53:54;5.38;;;4.28;;
19828;SDS011;10075;50.924;4.396;2023-06-10T09:56:21;5.25;;;4.75;;
19828;SDS011;10075;50.924;4.396;2023-06-10T09:58:59;6.50;;;4.95;;
19828;SDS011;10075;50.924;4.396;2023-06-10T10:01:26;6.38;;;4.60;;
19828;SDS011;10075;50.924;4.396;2023-06-10T10:03:53;6.53;;;4.80;;
19828;SDS011;10075;50.924;4.396;2023-06-10T10:06:20;5.80;;;4.28;;
19828;SDS011;10075;50.924;4.396;2023-06-10T10:08:48;8.55;;;4.95;;
19828;SDS011;10075;50.924;4.396;2023-06-10T10:11:18;5.90;;;5.07;;
19828;SDS011;10075;50.924;4.396;2023-06-10T10:13:48;6.03;;;5.07;;
19828;SDS011;10075;50.924;4.396;2023-06-10T10:16:16;8.38;;;4.72;;
19828;SDS011;10075;50.924;4.396;2023-06-10T10:18:47;7.68;;;5.47;;
19828;SDS011;10075;50.924;4.396;2023-06-10T10:21:20;7.50;;;5.05;;
19828;SDS011;10075;50.924;4.396;2023-06-10T10:23:52;6.45;;;5.35;;
19828;SDS011;10075;50.924;4.396;2023-06-10T10:26:24;7.38;;;4.90;;
19828;SDS011;10075;50.924;4.396;2023-06-10T10:28:57;8.80;;;5.28;;
19828;SDS011;10075;50.924;4.396;2023-06-10T10:31:31;5.13;;;4.35;;
19828;SDS011;10075;50.924;4.396;2023-06-10T10:34:02;10.40;;;5.68;;
19828;SDS011;10075;50.924;4.396;2023-06-10T10:36:33;6.10;;;5.25;;
19828;SDS011;10075;50.924;4.396;2023-06-10T10:39:01;6.25;;;4.88;;
19828;SDS011;10075;50.924;4.396;2023-06-10T10:41:30;8.20;;;5.32;;
19828;SDS011;10075;50.924;4.396;2023-06-10T10:43:58;6.10;;;5.00;;
19828;SDS011;10075;50.924;4.396;2023-06-10T10:46:26;6.45;;;5.10;;
19828;SDS011;10075;50.924;4.396;2023-06-10T10:48:54;8.48;;;5.68;;
19828;SDS011;10075;50.924;4.396;2023-06-10T10:51:23;9.73;;;5.10;;
19828;SDS011;10075;50.924;4.396;2023-06-10T10:59:54;7.72;;;5.25;;
19828;SDS011;10075;50.924;4.396;2023-06-10T11:02:34;8.20;;;4.95;;
19828;SDS011;10075;50.924;4.396;2023-06-10T11:05:03;8.82;;;4.40;;
19828;SDS011;10075;50.924;4.396;2023-06-10T11:07:32;10.75;;;5.60;;
19828;SDS011;10075;50.924;4.396;2023-06-10T11:10:00;6.18;;;5.40;;
19828;SDS011;10075;50.924;4.396;2023-06-10T11:12:52;5.47;;;4.97;;
19828;SDS011;10075;50.924;4.396;2023-06-10T11:15:19;12.65;;;4.88;;
19828;SDS011;10075;50.924;4.396;2023-06-10T11:23:33;7.78;;;5.07;;
19828;SDS011;10075;50.924;4.396;2023-06-10T11:26:10;5.85;;;4.53;;
19828;SDS011;10075;50.924;4.396;2023-06-10T11:28:40;6.80;;;4.72;;
19828;SDS011;10075;50.924;4.396;2023-06-10T11:31:07;6.15;;;5.10;;
19828;SDS011;10075;50.924;4.396;2023-06-10T11:33:36;8.98;;;5.18;;
19828;SDS011;10075;50.924;4.396;2023-06-10T11:36:06;9.63;;;5.45;;
19828;SDS011;10075;50.924;4.396;2023-06-10T11:38:33;6.25;;;4.90;;
19828;SDS011;10075;50.924;4.396;2023-06-10T11:41:00;5.88;;;5.15;;
19828;SDS011;10075;50.924;4.396;2023-06-10T11:43:28;7.85;;;4.90;;
19828;SDS011;10075;50.924;4.396;2023-06-10T11:45:58;8.57;;;5.63;;
19828;SDS011;10075;50.924;4.396;2023-06-10T11:48:25;6.22;;;5.30;;
19828;SDS011;10075;50.924;4.396;2023-06-10T11:50:53;6.10;;;5.50;;
19828;SDS011;10075;50.924;4.396;2023-06-10T11:53:20;7.78;;;5.10;;
19828;SDS011;10075;50.924;4.396;2023-06-10T11:55:48;7.80;;;4.82;;
19828;SDS011;10075;50.924;4.396;2023-06-10T11:58:17;7.90;;;5.30;;
19828;SDS011;10075;50.924;4.396;2023-06-10T12:00:45;6.80;;;5.13;;
19828;SDS011;10075;50.924;4.396;2023-06-10T12:03:15;5.72;;;4.93;;
19828;SDS011;10075;50.924;4.396;2023-06-10T12:05:54;8.60;;;5.82;;
19828;SDS011;10075;50.924;4.396;2023-06-10T12:08:22;7.53;;;5.30;;
19828;SDS011;10075;50.924;4.396;2023-06-10T12:10:50;8.13;;;5.43;;
19828;SDS011;10075;50.924;4.396;2023-06-10T12:13:17;7.25;;;5.53;;
19828;SDS011;10075;50.924;4.396;2023-06-10T12:15:44;6.90;;;5.50;;
19828;SDS011;10075;50.924;4.396;2023-06-10T12:18:17;6.75;;;5.03;;
19828;SDS011;10075;50.924;4.396;2023-06-10T12:20:45;6.95;;;5.30;;
19828;SDS011;10075;50.924;4.396;2023-06-10T12:23:12;7.25;;;4.63;;
19828;SDS011;10075;50.924;4.396;2023-06-10T12:25:42;8.68;;;4.85;;
19828;SDS011;10075;50.924;4.396;2023-06-10T12:28:16;6.28;;;5.20;;
19828;SDS011;10075;50.924;4.396;2023-06-10T12:30:46;9.70;;;6.25;;
19828;SDS011;10075;50.924;4.396;2023-06-10T12:33:17;8.10;;;5.15;;
19828;SDS011;10075;50.924;4.396;2023-06-10T12:35:48;11.65;;;5.40;;
19828;SDS011;10075;50.924;4.396;2023-06-10T12:38:20;12.65;;;5.18;;
19828;SDS011;10075;50.924;4.396;2023-06-10T12:40:49;6.00;;;5.40;;
19828;SDS011;10075;50.924;4.396;2023-06-10T12:43:20;6.60;;;5.15;;
19828;SDS011;10075;50.924;4.396;2023-06-10T12:45:48;6.40;;;5.38;;
19828;SDS011;10075;50.924;4.396;2023-06-10T12:48:20;6.15;;;4.80;;
19828;SDS011;10075;50.924;4.396;2023-06-10T12:50:51;7.13;;;4.70;;
19828;SDS011;10075;50.924;4.396;2023-06-10T12:53:19;9.90;;;5.05;;
19828;SDS011;10075;50.924;4.396;2023-06-10T12:55:48;5.82;;;5.03;;
19828;SDS011;10075;50.924;4.396;2023-06-10T12:58:15;7.90;;;4.63;;
19828;SDS011;10075;50.924;4.396;2023-06-10T13:00:42;5.75;;;4.88;;
19828;SDS011;10075;50.924;4.396;2023-06-10T13:03:09;7.95;;;4.78;;
19828;SDS011;10075;50.924;4.396;2023-06-10T13:05:38;9.40;;;4.80;;
19828;SDS011;10075;50.924;4.396;2023-06-10T13:08:05;5.97;;;4.90;;
19828;SDS011;10075;50.924;4.396;2023-06-10T13:10:35;9.35;;;4.88;;
19828;SDS011;10075;50.924;4.396;2023-06-10T13:13:02;9.32;;;4.70;;
19828;SDS011;10075;50.924;4.396;2023-06-10T13:15:32;8.98;;;4.90;;
19828;SDS011;10075;50.924;4.396;2023-06-10T13:18:01;7.60;;;4.88;;
19828;SDS011;10075;50.924;4.396;2023-06-10T13:20:29;9.35;;;4.90;;
19828;SDS011;10075;50.924;4.396;2023-06-10T13:22:57;9.60;;;5.00;;
19828;SDS011;10075;50.924;4.396;2023-06-10T13:25:24;6.45;;;4.45;;
19828;SDS011;10075;50.924;4.396;2023-06-10T13:27:51;5.03;;;4.53;;
19828;SDS011;10075;50.924;4.396;2023-06-10T13:30:19;6.13;;;4.53;;
19828;SDS011;10075;50.924;4.396;2023-06-10T13:32:46;10.27;;;4.97;;
19828;SDS011;10075;50.924;4.396;2023-06-10T13:35:13;4.95;;;4.38;;
19828;SDS011;10075;50.924;4.396;2023-06-10T13:37:40;13.20;;;4.85;;
19828;SDS011;10075;50.924;4.396;2023-06-10T13:40:09;7.32;;;4.70;;
19828;SDS011;10075;50.924;4.396;2023-06-10T13:42:37;9.15;;;5.07;;
19828;SDS011;10075;50.924;4.396;2023-06-10T13:45:05;5.22;;;4.72;;
19828;SDS011;10075;50.924;4.396;2023-06-10T13:47:34;5.65;;;4.70;;
19828;SDS011;10075;50.924;4.396;2023-06-10T13:50:01;5.43;;;4.93;;
19828;SDS011;10075;50.924;4.396;2023-06-10T13:52:28;9.18;;;5.38;;
19828;SDS011;10075;50.924;4.396;2023-06-10T13:54:55;7.10;;;5.30;;
19828;SDS011;10075;50.924;4.396;2023-06-10T13:57:24;6.78;;;5.03;;
19828;SDS011;10075;50.924;4.396;2023-06-10T13:59:51;6.25;;;4.75;;
19828;SDS011;10075;50.924;4.396;2023-06-10T14:02:18;8.32;;;5.53;;
19828;SDS011;10075;50.924;4.396;2023-06-10T14:04:45;9.88;;;5.50;;
19828;SDS011;10075;50.924;4.396;2023-06-10T14:07:12;9.80;;;5.40;;
19828;SDS011;10075;50.924;4.396;2023-06-10T14:09:40;5.97;;;5.28;;
19828;SDS011;10075;50.924;4.396;2023-06-10T14:12:07;14.95;;;9.88;;
19828;SDS011;10075;50.924;4.396;2023-06-10T14:14:37;12.38;;;4.80;;
19828;SDS011;10075;50.924;4.396;2023-06-10T14:17:04;7.93;;;5.18;;
19828;SDS011;10075;50.924;4.396;2023-06-10T14:19:31;6.20;;;5.57;;
19828;SDS011;10075;50.924;4.396;2023-06-10T14:21:58;7.95;;;5.18;;
19828;SDS011;10075;50.924;4.396;2023-06-10T14:24:25;7.93;;;4.95;;
19828;SDS011;10075;50.924;4.396;2023-06-10T14:26:52;6.65;;;4.70;;
19828;SDS011;10075;50.924;4.396;2023-06-10T14:29:19;7.45;;;5.00;;
19828;SDS011;10075;50.924;4.396;2023-06-10T14:31:48;5.78;;;5.10;;
19828;SDS011;10075;50.924;4.396;2023-06-10T14:34:15;8.57;;;4.68;;
19828;SDS011;10075;50.924;4.396;2023-06-10T14:36:42;7.28;;;5.13;;
19828;SDS011;10075;50.924;4.396;2023-06-10T14:39:09;6.38;;;4.75;;
19828;SDS011;10075;50.924;4.396;2023-06-10T14:41:36;9.80;;;8.88;;
19828;SDS011;10075;50.924;4.396;2023-06-10T14:44:03;9.25;;;8.35;;
19828;SDS011;10075;50.924;4.396;2023-06-10T14:46:30;7.85;;;7.03;;
19828;SDS011;10075;50.924;4.396;2023-06-10T14:48:59;15.93;;;5.45;;
19828;SDS011;10075;50.924;4.396;2023-06-10T14:51:27;12.50;;;11.32;;
19828;SDS011;10075;50.924;4.396;2023-06-10T14:53:54;7.72;;;4.57;;
19828;SDS011;10075;50.924;4.396;2023-06-10T14:56:21;5.75;;;4.40;;
19828;SDS011;10075;50.924;4.396;2023-06-10T14:58:48;6.63;;;4.70;;